Time;durP1;ratioP1;P1;durP2;ratioP2;P2;SDS_P1;SDS_P2;PMS_P1;PMS_P2;Temp;Humidity;BMP_temperature;BMP_pressure;BME280_temperature;BME280_humidity;BME280_pressure;Samples;Min_cycle;Max_cycle;Signal;HPM_P1;HPM_P2
2021/01/25 00:01:05;;;;;;;7.27;4.67;;;-2.40;99.90;;;;;;5093071;28;20198;-71
2021/01/25 00:03:32;;;;;;;7.57;5.77;;;-2.50;99.90;;;;;;5093200;28;20531;-72
2021/01/25 00:06:00;;;;;;;8.33;5.10;;;-2.50;99.90;;;;;;5094224;28;20447;-72
2021/01/25 00:08:27;;;;;;;8.60;6.00;;;-2.50;99.90;;;;;;5092771;28;20437;-72
2021/01/25 00:10:55;;;;;;;8.80;5.40;;;-2.50;99.90;;;;;;5093895;28;20436;-71
2021/01/25 00:13:23;;;;;;;8.97;5.27;;;-2.50;99.90;;;;;;5093991;28;20182;-74
2021/01/25 00:15:51;;;;;;;6.50;4.23;;;-2.50;99.90;;;;;;5093243;28;20497;-72
2021/01/25 00:18:19;;;;;;;6.45;5.20;;;-2.60;99.90;;;;;;5092687;28;20468;-75
2021/01/25 00:20:46;;;;;;;7.68;5.30;;;-2.70;99.90;;;;;;5094223;28;20260;-72
2021/01/25 00:23:13;;;;;;;5.63;4.35;;;-2.70;99.90;;;;;;5093851;28;20186;-73
2021/01/25 00:25:41;;;;;;;5.17;4.40;;;-2.70;99.90;;;;;;5076029;28;20203;-72
2021/01/25 00:28:09;;;;;;;7.70;5.17;;;-2.70;99.90;;;;;;5092864;28;20914;-71
2021/01/25 00:30:36;;;;;;;8.10;5.70;;;-2.60;99.90;;;;;;5093514;28;20444;-72
2021/01/25 00:33:04;;;;;;;5.93;5.07;;;-2.60;99.90;;;;;;5093660;28;20502;-73
2021/01/25 00:35:32;;;;;;;8.70;4.55;;;-2.60;99.90;;;;;;5109585;28;20443;-73
2021/01/25 00:38:00;;;;;;;8.93;6.47;;;-2.60;99.90;;;;;;5092398;28;20578;-72
2021/01/25 00:40:27;;;;;;;8.00;4.80;;;-2.70;99.90;;;;;;5093702;28;20456;-71
2021/01/25 00:42:54;;;;;;;7.30;4.65;;;-2.70;99.90;;;;;;5092300;28;20988;-71
2021/01/25 00:45:22;;;;;;;7.93;5.33;;;-2.60;99.90;;;;;;5094447;28;20190;-73
2021/01/25 00:47:50;;;;;;;7.47;5.00;;;-2.60;99.90;;;;;;5096199;28;20476;-75
2021/01/25 00:50:18;;;;;;;11.10;6.20;;;-2.50;99.90;;;;;;5117219;28;20191;-73
2021/01/25 00:52:46;;;;;;;9.37;6.00;;;-2.50;99.90;;;;;;5100218;28;20281;-72
2021/01/25 00:55:14;;;;;;;7.43;5.60;;;-2.50;99.90;;;;;;5114224;28;20451;-72
2021/01/25 00:57:42;;;;;;;10.50;5.30;;;-2.70;99.90;;;;;;5096432;28;20449;-76
2021/01/25 01:00:11;;;;;;;7.50;5.78;;;-2.70;99.90;;;;;;5097215;28;20835;-72
2021/01/25 01:05:31;;;;;;;7.55;4.63;;;-2.80;99.90;;;;;;5097769;28;20302;-73
2021/01/25 01:07:58;;;;;;;7.00;4.60;;;-2.90;99.90;;;;;;5096042;28;20207;-75
2021/01/25 01:10:26;;;;;;;8.13;5.60;;;-2.90;99.90;;;;;;5095710;28;20892;-72
2021/01/25 01:12:53;;;;;;;6.10;5.03;;;-2.90;99.90;;;;;;5097402;28;20492;-73
2021/01/25 01:15:21;;;;;;;9.07;5.57;;;-2.90;99.90;;;;;;5096827;28;20931;-72
2021/01/25 01:17:48;;;;;;;7.87;5.07;;;-2.90;99.90;;;;;;5112716;28;20252;-72
2021/01/25 01:20:17;;;;;;;8.97;5.27;;;-2.90;99.90;;;;;;5097480;28;20420;-72
2021/01/25 01:22:46;;;;;;;6.70;4.93;;;-2.90;99.90;;;;;;5096222;28;20460;-72
2021/01/25 01:25:13;;;;;;;8.15;5.75;;;-3.00;99.90;;;;;;5097192;28;20417;-71
2021/01/25 01:27:41;;;;;;;7.10;4.93;;;-3.00;99.90;;;;;;5097047;28;20584;-72
2021/01/25 01:30:09;;;;;;;10.37;5.67;;;-3.10;99.90;;;;;;5109179;28;20195;-71
2021/01/25 01:32:37;;;;;;;7.28;4.97;;;-3.10;99.90;;;;;;5113494;28;20490;-75
2021/01/25 01:35:06;;;;;;;8.35;4.90;;;-3.20;99.90;;;;;;5102693;28;20195;-72
2021/01/25 01:37:35;;;;;;;6.68;4.70;;;-3.20;99.90;;;;;;5096431;28;22060;-73
2021/01/25 01:40:05;;;;;;;8.07;5.68;;;-3.30;99.90;;;;;;5097402;28;20645;-74
2021/01/25 01:42:32;;;;;;;7.60;5.43;;;-3.30;99.90;;;;;;5096173;28;20205;-72
2021/01/25 01:45:01;;;;;;;8.18;4.50;;;-3.30;99.90;;;;;;5097317;28;20204;-71
2021/01/25 01:47:30;;;;;;;6.18;4.88;;;-3.40;99.90;;;;;;5095571;28;20290;-71
2021/01/25 01:49:59;;;;;;;7.25;5.20;;;-3.40;99.90;;;;;;5097025;28;20187;-71
2021/01/25 01:52:27;;;;;;;7.65;4.95;;;-3.50;99.90;;;;;;5095562;28;20248;-72
2021/01/25 01:54:56;;;;;;;10.73;4.40;;;-3.60;99.90;;;;;;5095530;28;20547;-72
2021/01/25 01:57:24;;;;;;;8.38;5.03;;;-3.70;99.90;;;;;;5094345;28;20258;-73
2021/01/25 01:59:52;;;;;;;9.70;6.35;;;-3.60;99.90;;;;;;5096747;28;20174;-73
2021/01/25 02:02:44;;;;;;;7.15;4.70;;;-3.60;99.90;;;;;;5095626;28;20242;-72
2021/01/25 02:05:12;;;;;;;11.32;5.60;;;-3.50;99.90;;;;;;5112324;28;20189;-72
2021/01/25 02:07:42;;;;;;;8.60;5.50;;;-3.60;99.90;;;;;;5096439;28;20630;-71
2021/01/25 02:10:12;;;;;;;9.75;4.97;;;-3.70;99.90;;;;;;5095998;28;20187;-73
2021/01/25 02:13:05;;;;;;;9.25;5.43;;;-3.80;99.90;;;;;;5095994;28;20335;-73
2021/01/25 02:15:33;;;;;;;6.80;4.80;;;-3.90;99.90;;;;;;5094466;28;20290;-75
2021/01/25 02:18:01;;;;;;;6.50;4.80;;;-3.90;99.90;;;;;;5095643;28;20317;-73
2021/01/25 02:20:32;;;;;;;9.48;6.00;;;-3.90;99.90;;;;;;5096452;28;20214;-72
2021/01/25 02:23:14;;;;;;;10.43;5.38;;;-3.90;99.90;;;;;;5095991;28;20179;-72
2021/01/25 02:25:50;;;;;;;9.88;5.45;;;-3.80;99.90;;;;;;5096161;28;20186;-73
2021/01/25 02:28:18;;;;;;;8.13;5.07;;;-3.80;99.90;;;;;;5094527;28;20182;-72
2021/01/25 02:30:48;;;;;;;6.05;4.70;;;-3.80;99.90;;;;;;5097504;28;20198;-72
2021/01/25 02:33:19;;;;;;;7.38;4.57;;;-3.90;99.90;;;;;;5115949;28;20225;-75
2021/01/25 02:35:48;;;;;;;5.28;4.75;;;-3.90;99.90;;;;;;5098066;28;20194;-73
2021/01/25 02:38:18;;;;;;;7.65;4.65;;;-3.80;99.90;;;;;;5080607;28;20298;-73
2021/01/25 02:40:48;;;;;;;8.00;5.18;;;-3.80;99.90;;;;;;5115873;28;20186;-72
2021/01/25 02:43:18;;;;;;;11.88;5.55;;;-4.00;99.90;;;;;;5097497;28;20649;-72
2021/01/25 02:45:48;;;;;;;6.10;5.15;;;-4.10;99.90;;;;;;5113765;28;20220;-72
2021/01/25 02:48:16;;;;;;;7.00;4.93;;;-4.20;99.90;;;;;;5097720;28;20234;-73
2021/01/25 02:50:49;;;;;;;5.40;4.18;;;-4.10;99.90;;;;;;5115591;28;20186;-72
2021/01/25 02:53:17;;;;;;;5.25;4.70;;;-4.10;99.90;;;;;;5114725;28;20178;-72
2021/01/25 02:55:45;;;;;;;8.20;5.72;;;-4.10;99.90;;;;;;5115540;28;20213;-75
2021/01/25 02:58:13;;;;;;;5.78;5.00;;;-4.10;99.90;;;;;;5115285;28;20230;-73
2021/01/25 03:00:42;;;;;;;8.75;5.55;;;-4.10;99.90;;;;;;5110174;28;20489;-72
2021/01/25 03:03:10;;;;;;;6.95;4.80;;;-4.20;99.90;;;;;;5093492;28;20234;-72
2021/01/25 03:05:38;;;;;;;7.97;4.88;;;-4.20;99.90;;;;;;5094710;28;20226;-72
2021/01/25 03:08:06;;;;;;;6.88;5.43;;;-4.30;99.90;;;;;;5095300;28;20193;-73
2021/01/25 03:10:34;;;;;;;7.28;5.60;;;-4.40;99.90;;;;;;5094988;28;20198;-72
2021/01/25 03:13:03;;;;;;;6.38;5.30;;;-4.40;99.90;;;;;;5093718;28;20250;-73
2021/01/25 03:15:33;;;;;;;6.75;4.82;;;-4.40;99.90;;;;;;5101544;28;20267;-75
2021/01/25 03:18:01;;;;;;;8.00;5.05;;;-4.50;99.90;;;;;;5096832;28;20241;-72
2021/01/25 03:20:29;;;;;;;9.02;5.05;;;-4.50;99.90;;;;;;5097402;28;20182;-73
2021/01/25 03:22:56;;;;;;;8.82;5.85;;;-4.40;99.90;;;;;;5098442;28;20174;-72
2021/01/25 03:25:24;;;;;;;7.97;5.50;;;-4.40;99.90;;;;;;5116180;28;20178;-74
2021/01/25 03:27:51;;;;;;;6.45;4.60;;;-4.40;99.90;;;;;;5103460;28;20238;-72
2021/01/25 03:30:19;;;;;;;9.15;6.10;;;-4.50;99.90;;;;;;5129118;28;20188;-72
2021/01/25 03:32:46;;;;;;;8.30;5.35;;;-4.50;99.90;;;;;;5094834;28;20226;-75
2021/01/25 03:35:15;;;;;;;5.55;4.20;;;-4.50;99.90;;;;;;5094947;28;20276;-72
2021/01/25 03:37:42;;;;;;;6.72;4.70;;;-4.50;99.90;;;;;;5094867;28;20179;-73
2021/01/25 03:40:10;;;;;;;6.90;4.63;;;-4.60;99.90;;;;;;5093397;28;20634;-72
2021/01/25 03:42:38;;;;;;;6.65;4.97;;;-4.70;99.90;;;;;;5093126;28;20587;-72
2021/01/25 03:45:07;;;;;;;9.00;5.05;;;-4.70;99.90;;;;;;5094500;28;20214;-72
2021/01/25 03:47:34;;;;;;;7.45;4.85;;;-4.70;99.90;;;;;;5092698;28;20234;-72
2021/01/25 03:50:03;;;;;;;6.70;5.03;;;-4.60;99.90;;;;;;5094736;28;20627;-74
2021/01/25 03:52:32;;;;;;;8.40;5.07;;;-4.50;99.90;;;;;;5093045;28;20206;-74
2021/01/25 03:54:59;;;;;;;7.35;5.47;;;-4.50;99.90;;;;;;5094384;28;20183;-72
2021/01/25 03:57:27;;;;;;;6.90;4.43;;;-4.50;99.90;;;;;;5093066;28;20202;-74
2021/01/25 03:59:55;;;;;;;7.75;4.75;;;-4.50;99.90;;;;;;5093035;28;20561;-71
2021/01/25 04:02:27;;;;;;;6.60;5.30;;;-4.50;99.90;;;;;;5089762;28;20248;-72
2021/01/25 04:04:56;;;;;;;8.55;5.65;;;-4.60;99.90;;;;;;5096610;28;20344;-72
2021/01/25 04:07:23;;;;;;;7.50;4.72;;;-4.60;99.90;;;;;;5079747;28;20209;-72
2021/01/25 04:09:51;;;;;;;8.25;4.55;;;-4.60;99.90;;;;;;5096406;28;20653;-72
2021/01/25 04:12:22;;;;;;;7.43;5.25;;;-4.60;99.90;;;;;;5113038;28;20631;-72
2021/01/25 04:14:50;;;;;;;7.93;4.97;;;-4.50;99.90;;;;;;5113373;28;20186;-75
2021/01/25 04:17:20;;;;;;;7.35;5.45;;;-4.50;99.90;;;;;;5095196;28;20693;-73
2021/01/25 04:19:51;;;;;;;7.47;5.18;;;-4.50;99.90;;;;;;5112680;28;20217;-74
2021/01/25 04:22:18;;;;;;;6.55;5.10;;;-4.50;99.90;;;;;;5114885;28;20178;-72
2021/01/25 04:25:14;;;;;;;8.00;5.82;;;-4.50;99.90;;;;;;5114600;28;20190;-71
2021/01/25 04:27:42;;;;;;;9.93;5.50;;;-4.40;99.90;;;;;;5114832;28;20657;-72
2021/01/25 04:30:11;;;;;;;7.88;5.60;;;-4.40;99.90;;;;;;5113430;28;20516;-72
2021/01/25 04:32:38;;;;;;;7.45;5.80;;;-4.40;99.90;;;;;;5094687;28;20249;-74
2021/01/25 04:35:08;;;;;;;9.05;5.25;;;-4.40;99.90;;;;;;5093262;28;20174;-71
2021/01/25 04:37:36;;;;;;;5.82;4.63;;;-4.30;99.90;;;;;;5093144;28;20186;-72
2021/01/25 04:40:04;;;;;;;8.98;5.32;;;-4.20;99.90;;;;;;5093553;28;20708;-73
2021/01/25 04:42:34;;;;;;;13.02;5.55;;;-4.10;99.90;;;;;;5093129;28;20202;-72
2021/01/25 04:45:03;;;;;;;7.55;5.25;;;-4.00;99.90;;;;;;5094654;28;20236;-72
2021/01/25 04:47:31;;;;;;;5.60;4.30;;;-3.90;99.90;;;;;;5092995;28;20257;-73
2021/01/25 04:49:59;;;;;;;6.13;5.55;;;-3.80;99.90;;;;;;5094102;28;20199;-75
2021/01/25 04:52:27;;;;;;;7.72;5.32;;;-3.80;99.90;;;;;;5093270;28;20240;-72
2021/01/25 04:54:57;;;;;;;6.00;5.38;;;-3.70;99.90;;;;;;5094584;28;20194;-72
2021/01/25 04:57:26;;;;;;;8.60;5.35;;;-3.70;99.90;;;;;;5094947;28;20235;-76
2021/01/25 04:59:55;;;;;;;8.98;5.47;;;-3.70;99.90;;;;;;5095433;28;20214;-73
2021/01/25 05:02:29;;;;;;;5.43;4.60;;;-3.60;99.90;;;;;;5094387;28;20257;-72
2021/01/25 05:04:56;;;;;;;8.40;5.35;;;-3.60;99.90;;;;;;5095633;28;20646;-72
2021/01/25 05:07:24;;;;;;;7.30;4.82;;;-3.60;99.90;;;;;;5109354;28;20190;-75
2021/01/25 05:09:52;;;;;;;7.35;4.60;;;-3.50;99.90;;;;;;5092488;28;20186;-72
2021/01/25 05:12:19;;;;;;;8.75;4.95;;;-3.50;99.90;;;;;;5093704;28;20560;-76
2021/01/25 05:14:47;;;;;;;6.88;4.45;;;-3.50;99.90;;;;;;5092751;28;20186;-72
2021/01/25 05:17:16;;;;;;;11.27;5.20;;;-3.40;99.90;;;;;;5092844;28;20715;-72
2021/01/25 05:19:45;;;;;;;7.13;4.85;;;-3.40;99.90;;;;;;5075753;28;20218;-72
2021/01/25 05:22:18;;;;;;;8.43;5.47;;;-3.40;99.90;;;;;;5076286;28;20277;-73
2021/01/25 05:27:42;;;;;;;9.35;5.43;;;-3.30;99.90;;;;;;5109071;28;20476;-73
2021/01/25 05:30:11;;;;;;;6.10;4.32;;;-3.30;99.90;;;;;;5091694;28;20183;-72
2021/01/25 05:32:46;;;;;;;9.52;5.00;;;-3.20;99.90;;;;;;5095474;28;20283;-73
2021/01/25 05:35:16;;;;;;;7.22;5.10;;;-3.20;99.90;;;;;;5113040;28;20193;-72
2021/01/25 05:37:50;;;;;;;7.00;5.38;;;-3.20;99.90;;;;;;5096705;28;20198;-72
2021/01/25 05:40:20;;;;;;;6.07;4.40;;;-3.10;99.90;;;;;;5097072;28;20294;-73
2021/01/25 05:42:47;;;;;;;4.60;3.95;;;-3.10;99.90;;;;;;5098555;28;20670;-72
2021/01/25 05:45:15;;;;;;;5.70;5.15;;;-3.10;99.90;;;;;;5096119;28;20209;-72
2021/01/25 05:47:47;;;;;;;6.93;5.03;;;-3.00;99.90;;;;;;5114337;28;20284;-73
2021/01/25 05:50:26;;;;;;;12.03;5.27;;;-3.00;99.90;;;;;;5095489;28;20179;-73
2021/01/25 05:52:54;;;;;;;11.07;5.85;;;-3.00;99.90;;;;;;5097354;28;20433;-73
2021/01/25 05:55:22;;;;;;;6.82;4.28;;;-3.00;99.90;;;;;;5097462;28;20217;-73
2021/01/25 05:57:49;;;;;;;6.65;4.90;;;-3.00;99.90;;;;;;5096371;28;20556;-72
2021/01/25 06:00:18;;;;;;;11.70;4.87;;;-2.90;99.90;;;;;;5096281;28;20225;-74
2021/01/25 06:02:48;;;;;;;6.75;5.55;;;-2.90;99.90;;;;;;5093215;28;20921;-71
2021/01/25 06:05:25;;;;;;;6.90;4.97;;;-2.90;99.90;;;;;;5096676;28;20261;-73
2021/01/25 06:07:57;;;;;;;7.10;5.00;;;-2.80;99.90;;;;;;5111762;28;20506;-72
2021/01/25 06:10:33;;;;;;;9.50;5.67;;;-2.80;99.90;;;;;;5099940;28;20433;-72
2021/01/25 06:13:05;;;;;;;5.13;4.37;;;-2.80;99.90;;;;;;5096413;28;20476;-73
2021/01/25 06:15:35;;;;;;;6.15;5.53;;;-2.80;99.90;;;;;;5096797;28;20424;-71
2021/01/25 06:18:04;;;;;;;6.67;5.03;;;-2.70;99.90;;;;;;5077893;28;20238;-72
2021/01/25 06:20:33;;;;;;;8.10;5.07;;;-2.70;99.90;;;;;;5096325;28;20441;-72
2021/01/25 06:23:02;;;;;;;6.43;5.20;;;-2.70;99.90;;;;;;5096376;28;20751;-72
2021/01/25 06:25:30;;;;;;;7.40;4.40;;;-2.70;99.90;;;;;;5079022;28;20186;-72
2021/01/25 06:27:58;;;;;;;7.83;5.37;;;-2.60;99.90;;;;;;5096984;28;20437;-76
2021/01/25 06:30:26;;;;;;;5.40;4.27;;;-2.60;99.90;;;;;;5096353;28;20428;-72
2021/01/25 06:32:55;;;;;;;7.20;4.00;;;-2.60;99.90;;;;;;5094610;28;20864;-72
2021/01/25 06:35:29;;;;;;;7.53;4.22;;;-2.60;99.90;;;;;;5096201;28;20472;-73
2021/01/25 06:37:58;;;;;;;7.75;5.47;;;-2.60;99.90;;;;;;5095476;28;20209;-75
2021/01/25 06:40:29;;;;;;;7.30;5.13;;;-2.60;99.90;;;;;;5078436;28;20271;-72
2021/01/25 06:42:57;;;;;;;5.85;4.80;;;-2.60;99.90;;;;;;5095842;28;20822;-74
2021/01/25 06:45:26;;;;;;;6.43;5.27;;;-2.50;99.90;;;;;;5095808;28;20185;-75
2021/01/25 06:47:55;;;;;;;7.40;4.70;;;-2.50;99.90;;;;;;5094886;28;20847;-72
2021/01/25 06:50:26;;;;;;;6.85;5.28;;;-2.50;99.90;;;;;;5097294;28;20198;-74
2021/01/25 06:52:54;;;;;;;5.75;4.70;;;-2.50;99.90;;;;;;5112625;28;20213;-74
2021/01/25 06:55:24;;;;;;;4.85;4.22;;;-2.50;99.90;;;;;;5097316;28;20584;-70
2021/01/25 06:57:52;;;;;;;8.02;5.35;;;-2.50;99.90;;;;;;5096167;28;20307;-72
2021/01/25 07:00:20;;;;;;;7.72;4.95;;;-2.50;99.90;;;;;;5095769;28;20210;-69
2021/01/25 07:02:57;;;;;;;6.05;4.63;;;-2.50;99.90;;;;;;5088059;28;20265;-70
2021/01/25 07:05:28;;;;;;;7.18;5.05;;;-2.50;99.90;;;;;;5087437;28;20214;-70
2021/01/25 07:08:19;;;;;;;7.72;5.35;;;-2.40;99.90;;;;;;5088439;28;20218;-69
2021/01/25 07:10:57;;;;;;;5.15;4.40;;;-2.40;99.90;;;;;;5088378;28;20225;-70
2021/01/25 07:13:26;;;;;;;6.95;4.97;;;-2.40;99.90;;;;;;5087995;28;20226;-70
2021/01/25 07:15:55;;;;;;;8.13;5.37;;;-2.30;99.90;;;;;;5086592;28;20249;-70
2021/01/25 07:18:26;;;;;;;7.23;4.90;;;-2.30;99.90;;;;;;5087844;28;20555;-71
2021/01/25 07:20:55;;;;;;;6.77;5.17;;;-2.30;99.90;;;;;;5088474;28;20464;-70
2021/01/25 07:23:25;;;;;;;6.65;5.35;;;-2.30;99.90;;;;;;5088129;28;20539;-70
2021/01/25 07:25:56;;;;;;;6.30;3.83;;;-2.30;99.90;;;;;;5086777;28;20286;-70
2021/01/25 07:28:25;;;;;;;7.00;4.30;;;-2.30;99.90;;;;;;5085766;28;20464;-70
2021/01/25 07:30:53;;;;;;;5.33;4.40;;;-2.20;99.90;;;;;;5085749;28;20540;-70
2021/01/25 07:33:22;;;;;;;5.43;4.20;;;-2.20;99.90;;;;;;5088465;28;20449;-70
2021/01/25 07:35:51;;;;;;;10.63;4.83;;;-2.10;99.90;;;;;;5086506;28;20598;-70
2021/01/25 07:38:20;;;;;;;10.50;6.40;;;-2.10;99.90;;;;;;5088177;28;20491;-70
2021/01/25 07:40:49;;;;;;;5.60;5.10;;;-2.00;99.90;;;;;;5088655;28;20526;-70
2021/01/25 07:43:18;;;;;;;7.70;5.10;;;-2.00;99.90;;;;;;5099338;28;20498;-70
2021/01/25 07:45:51;;;;;;;9.30;5.13;;;-2.00;99.90;;;;;;5110268;28;20771;-70
2021/01/25 07:48:19;;;;;;;8.77;6.47;;;-1.90;99.90;;;;;;5094721;28;20452;-70
2021/01/25 07:50:57;;;;;;;7.73;5.90;;;-1.90;99.90;;;;;;5094976;28;21009;-70
2021/01/25 07:53:35;;;;;;;10.80;6.10;;;-1.80;99.90;;;;;;5094943;28;20421;-70
2021/01/25 07:56:05;;;;;;;8.23;6.17;;;-1.80;99.90;;;;;;5094850;28;20477;-70
2021/01/25 07:58:36;;;;;;;7.30;6.17;;;-1.80;99.90;;;;;;5095179;28;20429;-70
2021/01/25 08:01:11;;;;;;;8.50;6.07;;;-1.70;99.90;;;;;;5095023;28;20440;-69
2021/01/25 08:03:41;;;;;;;10.13;5.83;;;-1.70;99.90;;;;;;5095570;28;20553;-70
2021/01/25 08:06:26;;;;;;;7.60;5.40;;;-1.70;99.90;;;;;;5094343;28;20947;-71
2021/01/25 08:08:55;;;;;;;8.80;6.03;;;-1.60;99.90;;;;;;5095807;28;20433;-70
2021/01/25 08:11:23;;;;;;;10.10;5.57;;;-1.70;99.90;;;;;;5096542;28;20476;-70
2021/01/25 08:14:02;;;;;;;8.30;6.03;;;-1.70;99.90;;;;;;5093080;28;20457;-69
2021/01/25 08:16:35;;;;;;;7.90;5.77;;;-1.60;99.90;;;;;;5095333;28;20471;-70
2021/01/25 08:19:11;;;;;;;8.03;6.40;;;-1.60;99.90;;;;;;5094889;28;20547;-69
2021/01/25 08:21:42;;;;;;;9.27;6.33;;;-1.60;99.90;;;;;;5096403;28;20483;-70
2021/01/25 08:24:12;;;;;;;6.40;4.80;;;-1.60;99.90;;;;;;5096185;28;20795;-69
2021/01/25 08:26:41;;;;;;;10.10;5.80;;;-1.60;99.90;;;;;;5095340;28;20429;-70
2021/01/25 08:29:18;;;;;;;8.50;6.37;;;-1.60;99.90;;;;;;5078396;28;20427;-69
2021/01/25 08:31:47;;;;;;;9.77;5.60;;;-1.50;99.90;;;;;;5092697;28;20476;-69
2021/01/25 08:34:26;;;;;;;7.83;6.07;;;-1.50;99.90;;;;;;5086771;28;20464;-69
2021/01/25 08:37:00;;;;;;;8.40;5.10;;;-1.50;99.90;;;;;;5085188;28;20460;-69
2021/01/25 08:39:34;;;;;;;8.33;6.20;;;-1.50;99.90;;;;;;5087973;28;20515;-70
2021/01/25 08:42:04;;;;;;;7.97;5.67;;;-1.50;99.90;;;;;;5093807;28;20460;-70
2021/01/25 08:44:42;;;;;;;7.07;5.70;;;-1.50;99.90;;;;;;5096860;28;20468;-70
2021/01/25 08:47:10;;;;;;;8.53;5.30;;;-1.50;99.90;;;;;;5086660;28;20494;-70
2021/01/25 08:49:40;;;;;;;6.97;4.90;;;-1.50;99.90;;;;;;5085935;28;20547;-69
2021/01/25 08:52:10;;;;;;;8.93;5.83;;;-1.40;99.90;;;;;;5087811;28;20460;-70
2021/01/25 08:54:39;;;;;;;5.93;5.30;;;-1.40;99.90;;;;;;5088513;28;20612;-71
2021/01/25 08:57:17;;;;;;;9.53;5.30;;;-1.30;99.90;;;;;;5087195;28;20518;-70
2021/01/25 08:59:46;;;;;;;8.90;6.03;;;-1.30;99.90;;;;;;5072416;28;20480;-70
2021/01/25 09:02:21;;;;;;;8.07;6.63;;;-1.30;99.90;;;;;;5108096;28;20986;-69
2021/01/25 09:04:50;;;;;;;7.60;5.23;;;-1.20;99.90;;;;;;5091068;28;20500;-70
2021/01/25 09:07:23;;;;;;;8.77;6.83;;;-1.20;99.90;;;;;;5111771;28;20844;-70
2021/01/25 09:09:50;;;;;;;9.10;5.17;;;-1.20;99.90;;;;;;5110697;28;21112;-70
2021/01/25 09:12:20;;;;;;;9.43;5.20;;;-1.10;99.90;;;;;;5112957;28;20492;-70
2021/01/25 09:14:49;;;;;;;6.67;5.27;;;-1.10;99.90;;;;;;5113412;28;20463;-70
2021/01/25 09:17:17;;;;;;;7.23;5.10;;;-1.00;99.90;;;;;;5110870;28;20481;-69
2021/01/25 09:19:45;;;;;;;6.50;3.87;;;-1.00;99.90;;;;;;5110662;28;20517;-69
2021/01/25 09:22:13;;;;;;;10.80;5.23;;;-0.90;99.90;;;;;;5112106;28;20455;-71
2021/01/25 09:24:41;;;;;;;7.53;5.27;;;-0.80;99.90;;;;;;5093070;28;20469;-70
2021/01/25 09:27:09;;;;;;;5.80;4.40;;;-0.70;99.90;;;;;;5111032;28;20523;-70
2021/01/25 09:29:37;;;;;;;7.30;5.27;;;-0.60;99.90;;;;;;5110933;28;20456;-69
2021/01/25 09:32:07;;;;;;;4.00;3.13;;;-0.60;99.90;;;;;;5108136;28;20538;-71
2021/01/25 09:34:36;;;;;;;7.20;4.10;;;-0.50;99.90;;;;;;5092808;28;20565;-70
2021/01/25 09:37:05;;;;;;;6.97;4.17;;;-0.30;99.90;;;;;;5111170;28;20822;-70
2021/01/25 09:39:33;;;;;;;6.67;4.57;;;-0.20;99.90;;;;;;5110447;28;20590;-70
2021/01/25 09:42:01;;;;;;;6.10;4.13;;;0.10;99.90;;;;;;5108682;28;20454;-70
2021/01/25 09:44:28;;;;;;;6.73;5.60;;;0.00;99.90;;;;;;5109833;28;20459;-70
2021/01/25 09:46:56;;;;;;;3.60;3.30;;;-0.20;99.90;;;;;;5092807;28;21010;-70
2021/01/25 09:49:25;;;;;;;6.77;4.70;;;0.10;99.90;;;;;;5088537;28;20466;-71
2021/01/25 09:51:53;;;;;;;4.67;4.20;;;0.10;99.90;;;;;;5089523;28;20462;-70
2021/01/25 09:54:20;;;;;;;10.00;6.17;;;0.40;99.90;;;;;;5089864;28;20551;-70
2021/01/25 09:56:49;;;;;;;4.43;3.73;;;0.50;99.90;;;;;;5088892;28;20465;-70
2021/01/25 09:59:44;;;;;;;4.90;4.30;;;0.60;99.90;;;;;;5090526;28;20483;-71
2021/01/25 10:02:12;;;;;;;7.63;4.20;;;0.40;99.90;;;;;;5089705;28;20479;-70
2021/01/25 10:04:40;;;;;;;9.80;5.00;;;0.60;99.90;;;;;;5109661;28;20462;-70
2021/01/25 10:07:08;;;;;;;5.37;4.20;;;0.50;99.90;;;;;;5109565;28;20823;-69
2021/01/25 10:09:35;;;;;;;6.70;5.03;;;0.50;99.90;;;;;;5110117;28;20905;-70
2021/01/25 10:12:04;;;;;;;10.80;4.30;;;0.40;99.90;;;;;;5104346;28;20487;-70
2021/01/25 10:14:32;;;;;;;4.07;3.47;;;0.60;99.90;;;;;;5089551;28;21070;-70
2021/01/25 10:16:59;;;;;;;6.73;3.77;;;0.60;99.90;;;;;;5086860;28;20525;-71
2021/01/25 10:19:27;;;;;;;6.10;4.00;;;0.60;99.90;;;;;;5087636;28;20496;-71
2021/01/25 10:21:55;;;;;;;5.57;3.97;;;0.70;99.90;;;;;;5089070;28;20457;-71
2021/01/25 10:24:22;;;;;;;7.43;4.20;;;0.90;99.90;;;;;;5088999;28;20468;-71
2021/01/25 10:26:49;;;;;;;4.27;3.60;;;1.00;99.90;;;;;;5070768;28;20505;-70
2021/01/25 10:29:17;;;;;;;7.70;3.87;;;1.40;99.90;;;;;;5088502;28;20479;-70
2021/01/25 10:31:44;;;;;;;3.50;3.20;;;1.30;99.90;;;;;;5087497;28;20484;-70
2021/01/25 10:34:12;;;;;;;5.43;3.20;;;1.30;99.90;;;;;;5088070;28;20453;-70
2021/01/25 10:36:39;;;;;;;6.13;3.90;;;1.00;99.90;;;;;;5086960;28;20471;-72
2021/01/25 10:39:08;;;;;;;3.20;2.90;;;1.20;99.90;;;;;;5088508;28;20449;-70
2021/01/25 10:41:35;;;;;;;3.27;2.80;;;1.10;99.90;;;;;;5088265;28;20449;-70
2021/01/25 10:44:03;;;;;;;5.07;3.30;;;0.90;99.90;;;;;;5069708;28;20464;-70
2021/01/25 10:46:30;;;;;;;5.30;3.10;;;0.70;99.90;;;;;;5086009;28;20479;-70
2021/01/25 10:48:58;;;;;;;3.63;3.10;;;1.00;99.90;;;;;;5087820;28;20522;-70
2021/01/25 10:51:26;;;;;;;5.87;3.40;;;1.10;99.90;;;;;;5087117;28;20472;-70
2021/01/25 10:53:55;;;;;;;4.20;3.77;;;1.10;99.90;;;;;;5088057;28;20480;-70
2021/01/25 10:56:48;;;;;;;6.13;4.67;;;1.30;99.90;;;;;;5087385;28;20555;-69
2021/01/25 10:59:16;;;;;;;6.20;3.17;;;1.40;99.90;;;;;;5086753;28;20488;-70
2021/01/25 11:01:44;;;;;;;3.60;3.23;;;1.50;99.90;;;;;;5068580;28;20480;-70
2021/01/25 11:04:12;;;;;;;4.60;2.97;;;1.70;99.90;;;;;;5087800;28;20461;-70
2021/01/25 11:06:40;;;;;;;4.40;3.50;;;1.70;99.90;;;;;;5087768;28;20464;-70
2021/01/25 11:09:08;;;;;;;4.60;3.37;;;1.70;99.90;;;;;;5086493;28;21611;-70
2021/01/25 11:11:35;;;;;;;4.33;3.50;;;1.70;99.90;;;;;;5086120;28;20923;-70
2021/01/25 11:14:04;;;;;;;9.37;4.63;;;2.00;99.90;;;;;;5087930;28;20473;-70
2021/01/25 11:16:32;;;;;;;3.57;3.10;;;1.90;99.90;;;;;;5088641;28;20476;-71
2021/01/25 11:18:59;;;;;;;3.53;3.23;;;2.10;99.90;;;;;;5100266;28;20461;-70
2021/01/25 11:21:27;;;;;;;4.37;3.90;;;2.20;99.90;;;;;;5070722;28;20460;-70
2021/01/25 11:23:54;;;;;;;5.07;4.40;;;1.80;99.90;;;;;;5087606;28;20456;-71
2021/01/25 11:26:25;;;;;;;4.07;3.30;;;1.40;99.90;;;;;;5096810;28;20460;-70
2021/01/25 11:28:52;;;;;;;5.67;5.17;;;1.40;99.90;;;;;;5097117;28;20528;-70
2021/01/25 11:31:22;;;;;;;6.90;5.40;;;1.20;99.90;;;;;;5094085;28;20522;-69
2021/01/25 11:33:49;;;;;;;4.67;4.23;;;1.10;99.90;;;;;;5087467;28;20892;-70
2021/01/25 11:36:17;;;;;;;5.93;4.23;;;1.20;99.90;;;;;;5089567;28;20480;-70
2021/01/25 11:38:45;;;;;;;4.90;4.30;;;1.40;99.90;;;;;;5088157;28;20452;-69
2021/01/25 11:41:12;;;;;;;4.80;4.03;;;1.50;99.90;;;;;;5086825;28;20495;-70
2021/01/25 11:43:39;;;;;;;5.30;4.80;;;1.70;99.90;;;;;;5087494;28;20457;-69
2021/01/25 11:46:07;;;;;;;5.37;4.13;;;1.80;99.90;;;;;;5058991;28;20465;-69
2021/01/25 11:48:35;;;;;;;7.10;4.63;;;1.60;99.90;;;;;;5065740;28;20449;-70
2021/01/25 11:51:03;;;;;;;4.70;3.93;;;1.70;99.90;;;;;;5066959;28;20471;-71
2021/01/25 11:53:31;;;;;;;11.10;8.07;;;1.80;99.90;;;;;;5067857;28;20995;-71
2021/01/25 11:55:59;;;;;;;8.23;5.30;;;1.80;99.90;;;;;;5067772;28;20472;-70
2021/01/25 11:58:30;;;;;;;6.93;5.63;;;1.80;99.90;;;;;;5067900;28;20449;-70
2021/01/25 12:00:58;;;;;;;8.23;5.50;;;2.10;99.90;;;;;;5073399;28;20542;-69
2021/01/25 12:03:25;;;;;;;7.77;5.57;;;2.30;99.90;;;;;;5078028;28;20461;-69
2021/01/25 12:05:54;;;;;;;6.07;5.47;;;1.90;99.90;;;;;;5070243;28;20472;-70
2021/01/25 12:08:21;;;;;;;5.53;5.00;;;1.60;99.90;;;;;;5068628;28;20488;-69
2021/01/25 12:10:49;;;;;;;4.90;4.40;;;1.50;99.90;;;;;;5067230;28;20459;-70
2021/01/25 12:13:17;;;;;;;7.63;6.53;;;1.30;99.90;;;;;;5065499;28;20480;-70
2021/01/25 12:15:44;;;;;;;12.70;6.73;;;1.20;99.90;;;;;;5069473;28;20847;-69
2021/01/25 12:18:11;;;;;;;9.80;5.70;;;1.40;99.90;;;;;;5084252;28;20474;-70
2021/01/25 12:20:39;;;;;;;5.83;4.93;;;1.60;99.90;;;;;;5084334;28;20483;-70
2021/01/25 12:23:07;;;;;;;6.90;5.80;;;1.80;99.90;;;;;;5087392;28;20548;-70
2021/01/25 12:25:34;;;;;;;5.40;4.60;;;1.90;99.90;;;;;;5085929;28;20466;-70
2021/01/25 12:28:04;;;;;;;8.30;5.63;;;2.00;99.90;;;;;;5084808;28;20554;-70
2021/01/25 12:30:31;;;;;;;5.53;4.13;;;2.10;99.90;;;;;;5086263;28;20590;-70
2021/01/25 12:32:58;;;;;;;8.93;5.60;;;2.40;99.90;;;;;;5084250;28;20902;-69
2021/01/25 12:35:29;;;;;;;9.30;5.40;;;2.40;99.90;;;;;;5087046;28;20460;-70
2021/01/25 12:37:56;;;;;;;5.47;4.53;;;2.00;99.90;;;;;;5084438;28;20437;-71
2021/01/25 12:40:26;;;;;;;5.90;5.10;;;1.90;99.90;;;;;;5102272;28;20869;-70
2021/01/25 12:42:54;;;;;;;8.10;5.10;;;2.30;99.90;;;;;;5088493;28;20464;-70
2021/01/25 12:45:24;;;;;;;6.47;5.87;;;2.30;99.90;;;;;;5089945;28;20444;-69
2021/01/25 12:47:53;;;;;;;7.27;6.57;;;2.20;99.90;;;;;;5088309;28;20475;-69
2021/01/25 12:50:24;;;;;;;5.93;4.60;;;1.80;99.90;;;;;;5089983;28;20546;-69
2021/01/25 12:52:53;;;;;;;5.27;4.57;;;2.00;99.90;;;;;;5090055;28;20455;-70
2021/01/25 12:55:21;;;;;;;9.40;6.50;;;1.90;99.90;;;;;;5071433;28;20453;-70
2021/01/25 12:57:51;;;;;;;13.80;6.13;;;2.00;99.90;;;;;;5090325;28;20448;-70
2021/01/25 13:00:25;;;;;;;8.80;7.23;;;2.00;99.90;;;;;;5070901;28;21037;-70
2021/01/25 13:02:52;;;;;;;8.20;6.20;;;2.00;99.90;;;;;;5089022;28;20479;-69
2021/01/25 13:05:20;;;;;;;7.20;6.13;;;1.90;99.90;;;;;;5088674;28;20468;-70